createdAt,value
2023-04-15T00:02:29.773Z,1.50
2023-04-15T00:07:32.305Z,3.45
2023-04-15T00:12:34.123Z,2.58
2023-04-15T00:17:36.340Z,2.08
2023-04-15T00:22:38.182Z,1.52
2023-04-15T00:27:40.729Z,1.23
2023-04-15T00:32:42.701Z,1.33
2023-04-15T00:37:46.217Z,0.77
2023-04-15T00:42:48.362Z,1.85
2023-04-15T00:47:51.460Z,1.05
2023-04-15T00:52:53.284Z,1.63
2023-04-15T00:57:55.125Z,0.40
2023-04-15T01:02:58.030Z,3.13
2023-04-15T01:08:00.363Z,0.80
2023-04-15T01:13:03.717Z,2.58
2023-04-15T01:18:06.125Z,1.83
2023-04-15T01:23:08.531Z,4.22
2023-04-15T01:28:10.918Z,2.10
2023-04-15T01:33:13.378Z,1.65
2023-04-15T01:38:15.496Z,2.25
2023-04-15T01:43:17.880Z,2.05
2023-04-15T01:48:19.831Z,1.60
2023-04-15T01:53:21.694Z,1.17
2023-04-15T01:58:23.532Z,2.40
2023-04-15T02:03:25.918Z,1.10
2023-04-15T02:08:28.693Z,1.00
2023-04-15T02:13:31.814Z,1.10
2023-04-15T02:18:33.824Z,1.27
2023-04-15T02:23:35.923Z,1.02
2023-04-15T02:28:37.812Z,0.82
2023-04-15T02:33:39.651Z,1.00
2023-04-15T02:38:47.623Z,1.20
2023-04-15T02:43:51.010Z,1.30
2023-04-15T02:48:53.951Z,1.35
2023-04-15T02:53:58.489Z,1.83
2023-04-15T02:59:01.058Z,1.48
2023-04-15T03:04:03.358Z,1.17
2023-04-15T03:09:05.658Z,2.47
2023-04-15T03:14:13.172Z,1.00
2023-04-15T03:19:19.479Z,1.65
2023-04-15T03:24:21.433Z,0.73
2023-04-15T03:29:24.060Z,0.88
2023-04-15T03:34:25.918Z,1.00
2023-04-15T03:39:27.838Z,1.38
2023-04-15T03:44:29.867Z,1.20
2023-04-15T03:49:31.805Z,0.98
2023-04-15T03:54:33.836Z,1.63
2023-04-15T03:59:35.674Z,2.45
2023-04-15T04:04:37.618Z,1.50
2023-04-15T04:09:40.820Z,1.10
2023-04-15T04:14:42.695Z,1.70
2023-04-15T04:19:44.668Z,1.30
2023-04-15T04:24:46.648Z,1.52
2023-04-15T04:29:50.074Z,0.95
2023-04-15T04:34:51.914Z,1.55
2023-04-15T04:39:53.897Z,1.42
2023-04-15T04:44:55.688Z,1.13
2023-04-15T04:49:57.509Z,2.30
2023-04-15T04:54:59.548Z,0.88
2023-04-15T05:00:02.156Z,0.90
2023-04-15T05:05:07.958Z,0.60
2023-04-15T05:10:10.436Z,1.10
2023-04-15T05:15:12.401Z,1.13
2023-04-15T05:20:14.558Z,1.15
2023-04-15T05:25:17.039Z,1.10
2023-04-15T05:30:19.183Z,0.70
2023-04-15T05:35:21.669Z,0.43
2023-04-15T05:40:23.696Z,0.40
2023-04-15T05:45:25.616Z,0.60
2023-04-15T05:50:27.865Z,0.60
2023-04-15T05:55:29.680Z,0.52
2023-04-15T06:00:31.441Z,0.50
2023-04-15T06:05:33.533Z,0.50
2023-04-15T06:10:36.927Z,0.50
2023-04-15T06:15:39.003Z,0.50
2023-04-15T06:20:44.546Z,0.80
2023-04-15T06:25:46.720Z,0.75
2023-04-15T06:30:48.669Z,0.88
2023-04-15T06:35:51.071Z,1.35
2023-04-15T06:40:52.850Z,0.88
2023-04-15T06:45:54.743Z,0.60
2023-04-15T06:50:58.403Z,0.85
2023-04-15T06:56:00.202Z,0.70
2023-04-15T07:01:03.978Z,1.73
2023-04-15T07:06:07.215Z,1.10
2023-04-15T07:11:09.146Z,0.60
2023-04-15T07:16:11.362Z,0.77
2023-04-15T07:21:13.347Z,1.50
2023-04-15T07:26:15.260Z,1.13
2023-04-15T07:31:17.556Z,0.50
2023-04-15T07:36:19.750Z,2.33
2023-04-15T07:41:22.609Z,0.82
2023-04-15T07:46:26.906Z,1.08
2023-04-15T07:51:29.811Z,2.08
2023-04-15T07:56:31.560Z,1.58
2023-04-15T08:01:33.416Z,3.05
2023-04-15T08:06:37.498Z,0.70
2023-04-15T08:11:39.485Z,0.77
2023-04-15T08:16:41.540Z,1.05
2023-04-15T08:21:43.536Z,1.27
2023-04-15T08:26:46.980Z,2.42
2023-04-15T08:31:49.248Z,1.63
2023-04-15T08:36:51.642Z,1.15
2023-04-15T08:42:05.985Z,1.58
2023-04-15T08:47:09.356Z,2.38
2023-04-15T08:52:12.735Z,2.58
2023-04-15T08:57:15.866Z,1.30
2023-04-15T09:02:18.206Z,2.33
2023-04-15T09:07:20.539Z,1.40
2023-04-15T09:12:22.528Z,2.00
2023-04-15T09:17:26.990Z,4.63
2023-04-15T09:22:33.422Z,3.60
2023-04-15T09:27:37.739Z,3.28
2023-04-15T09:32:52.612Z,2.80
2023-04-15T09:38:10.238Z,3.00
2023-04-15T09:43:17.716Z,3.97
2023-04-15T09:48:27.467Z,4.32
2023-04-15T09:53:31.745Z,3.75
2023-04-15T09:58:35.806Z,2.30
2023-04-15T10:03:40.221Z,4.45
2023-04-15T10:08:42.817Z,3.47
2023-04-15T10:13:49.348Z,3.60
2023-04-15T10:18:55.694Z,2.33
2023-04-15T10:23:58.733Z,4.93
2023-04-15T10:29:01.790Z,7.45
2023-04-15T10:34:06.626Z,4.03
2023-04-15T10:39:34.361Z,3.72
2023-04-15T10:44:43.550Z,3.53
2023-04-15T10:49:57.203Z,4.63
2023-04-15T10:55:11.083Z,3.55
2023-04-15T11:00:14.175Z,3.88
2023-04-15T11:05:17.743Z,3.78
2023-04-15T11:10:26.048Z,3.33
2023-04-15T11:15:33.353Z,3.42
2023-04-15T11:20:37.696Z,5.17
2023-04-15T11:25:39.605Z,3.05
2023-04-15T11:30:42.841Z,3.13
2023-04-15T11:37:07.216Z,3.15
2023-04-15T11:42:18.735Z,4.55
2023-04-15T11:47:24.997Z,4.55
2023-04-15T11:52:27.334Z,3.13
2023-04-15T11:57:32.730Z,3.15
2023-04-15T12:03:13.011Z,3.30
2023-04-15T12:08:15.030Z,4.50
2023-04-15T12:13:17.044Z,3.70
2023-04-15T12:18:48.914Z,4.47
2023-04-15T12:23:56.207Z,3.83
2023-04-15T12:49:11.185Z,5.40
2023-04-15T13:00:39.330Z,5.63
2023-04-15T13:12:47.068Z,2.22
2023-04-15T13:18:19.577Z,3.08
2023-04-15T13:23:21.528Z,3.25
2023-04-15T13:28:23.680Z,3.85
2023-04-15T13:33:25.999Z,3.10
2023-04-15T13:38:30.720Z,2.95
2023-04-15T13:43:34.453Z,3.45
2023-04-15T13:49:03.037Z,3.90
2023-04-15T13:59:08.783Z,3.72
2023-04-15T14:04:11.061Z,3.42
2023-04-15T14:09:14.077Z,3.78
2023-04-15T14:14:16.561Z,2.88
2023-04-15T14:19:18.578Z,3.53
2023-04-15T14:24:22.970Z,3.67
2023-04-15T14:29:25.136Z,3.08
2023-04-15T14:34:27.485Z,2.05
2023-04-15T14:39:29.427Z,1.58
2023-04-15T14:49:33.077Z,2.10
2023-04-15T14:54:35.151Z,2.80
2023-04-15T14:59:36.959Z,3.45
2023-04-15T15:05:34.376Z,2.83
2023-04-15T15:10:49.092Z,2.13
2023-04-15T15:15:52.188Z,1.67
2023-04-15T15:26:23.550Z,1.98
2023-04-15T15:31:28.654Z,2.30
2023-04-15T15:48:41.673Z,1.58
2023-04-15T15:53:44.950Z,3.10
2023-04-15T15:58:49.125Z,3.17
2023-04-15T16:03:51.381Z,3.97
2023-04-15T16:08:53.414Z,3.42
2023-04-15T16:13:55.384Z,2.08
2023-04-15T16:19:00.058Z,5.40
2023-04-15T16:24:02.359Z,2.53
2023-04-15T16:29:04.863Z,2.22
2023-04-15T16:34:07.209Z,4.28
2023-04-15T16:39:09.205Z,2.85
2023-04-15T16:44:11.424Z,10.80
2023-04-15T16:49:13.573Z,4.15
2023-04-15T16:54:15.594Z,4.72
2023-04-15T16:59:17.535Z,4.00
2023-04-15T17:04:19.469Z,4.88
2023-04-15T17:09:21.750Z,5.60
2023-04-15T17:14:23.595Z,4.65
2023-04-15T17:19:26.946Z,4.68
2023-04-15T17:24:28.962Z,4.05
2023-04-15T17:29:33.746Z,5.68
2023-04-15T17:34:50.757Z,8.05
2023-04-15T17:39:55.458Z,14.80
2023-04-15T17:44:57.287Z,9.13
2023-04-15T17:49:59.016Z,10.80
2023-04-15T17:55:00.810Z,13.85
2023-04-15T18:00:02.808Z,25.63
2023-04-15T18:05:14.984Z,11.25
2023-04-15T18:10:16.965Z,8.35
2023-04-15T18:15:19.129Z,10.23
2023-04-15T18:20:23.809Z,8.82
2023-04-15T18:25:31.314Z,19.42
2023-04-15T18:30:53.307Z,8.13
2023-04-15T18:35:56.324Z,7.13
2023-04-15T18:40:58.795Z,8.70
2023-04-15T18:46:02.126Z,6.50
2023-04-15T18:51:04.156Z,13.55
2023-04-15T18:56:07.236Z,6.75
2023-04-15T19:01:10.138Z,9.93
2023-04-15T19:06:13.775Z,43.80
2023-04-15T19:11:15.873Z,111.95
2023-04-15T19:16:17.733Z,75.47
2023-04-15T19:21:22.741Z,55.50
2023-04-15T19:26:50.147Z,64.63
2023-04-15T19:31:51.962Z,38.65
2023-04-15T19:36:54.765Z,23.65
2023-04-15T19:41:56.672Z,16.83
2023-04-15T19:46:58.514Z,14.80
2023-04-15T19:52:04.331Z,13.48
2023-04-15T19:57:06.609Z,10.32
2023-04-15T20:02:08.729Z,13.15
2023-04-15T20:07:10.877Z,8.82
2023-04-15T20:12:51.281Z,8.90
2023-04-15T20:17:37.981Z,9.13
2023-04-15T20:22:39.889Z,12.32
2023-04-15T20:27:52.177Z,33.92
2023-04-15T20:32:53.966Z,42.15
2023-04-15T20:37:55.787Z,31.33
2023-04-15T20:42:57.650Z,20.73
2023-04-15T20:47:59.753Z,15.02
2023-04-15T20:53:01.661Z,16.92
2023-04-15T20:58:03.524Z,19.02
2023-04-15T21:03:05.807Z,17.88
2023-04-15T21:08:07.976Z,18.20
2023-04-15T21:13:09.842Z,14.25
2023-04-15T21:18:11.577Z,15.07
2023-04-15T21:23:13.417Z,14.80
2023-04-15T21:28:15.262Z,17.23
2023-04-15T21:33:20.208Z,15.18
2023-04-15T21:38:23.358Z,16.30
2023-04-15T21:43:25.845Z,18.02
2023-04-15T21:48:28.032Z,13.45
2023-04-15T21:53:30.154Z,15.35
2023-04-15T21:58:31.985Z,15.70
2023-04-15T22:03:35.282Z,16.38
2023-04-15T22:09:11.358Z,16.20
2023-04-15T22:14:15.926Z,13.75
2023-04-15T22:19:18.231Z,14.38
2023-04-15T22:24:32.985Z,12.00
2023-04-15T22:29:41.753Z,11.80
2023-04-15T22:34:43.590Z,14.68
2023-04-15T22:39:45.612Z,13.05
2023-04-15T22:44:47.802Z,12.93
2023-04-15T22:49:52.628Z,11.68
2023-04-15T22:54:54.469Z,14.40
2023-04-15T22:59:56.310Z,13.35
2023-04-15T23:04:58.315Z,11.80
2023-04-15T23:10:01.504Z,16.83
2023-04-15T23:15:03.859Z,17.52
2023-04-15T23:20:06.566Z,16.77
2023-04-15T23:25:10.859Z,14.95
2023-04-15T23:30:12.708Z,17.80
2023-04-15T23:40:40.543Z,12.75
2023-04-15T23:45:51.520Z,15.40
2023-04-15T23:56:44.563Z,12.02
